Time;durP1;ratioP1;P1;durP2;ratioP2;P2;SDS_P1;SDS_P2;PMS_P1;PMS_P2;Temp;Humidity;BMP_temperature;BMP_pressure;BME280_temperature;BME280_humidity;BME280_pressure;Samples;Min_cycle;Max_cycle;Signal;HPM_P1;HPM_P2
2021/06/17 00:01:36;;;;;;;7.10;5.30;;;20.40;99.90;;;;;;5067602;28;20876;-75
2021/06/17 00:04:02;;;;;;;7.30;5.40;;;20.40;99.90;;;;;;5063111;28;20111;-75
2021/06/17 00:06:27;;;;;;;8.65;5.88;;;20.40;99.90;;;;;;5059943;28;20028;-75
2021/06/17 00:08:53;;;;;;;7.25;5.50;;;20.40;99.90;;;;;;5063122;28;20024;-75
2021/06/17 00:11:18;;;;;;;8.40;5.55;;;20.30;99.90;;;;;;5067677;28;20034;-75
2021/06/17 00:13:46;;;;;;;8.55;5.90;;;20.30;99.90;;;;;;5062854;28;20497;-76
2021/06/17 00:16:12;;;;;;;11.57;5.88;;;20.30;99.90;;;;;;5060658;28;20028;-76
2021/06/17 00:18:41;;;;;;;9.95;6.30;;;20.20;99.90;;;;;;5064105;28;20024;-76
2021/06/17 00:21:06;;;;;;;13.95;6.65;;;20.20;99.90;;;;;;5063512;28;20040;-75
2021/06/17 00:23:33;;;;;;;7.63;5.40;;;20.30;99.90;;;;;;5065778;28;20032;-75
2021/06/17 00:25:59;;;;;;;11.60;5.65;;;20.20;99.90;;;;;;5059537;28;20024;-76
2021/06/17 00:28:30;;;;;;;11.55;5.90;;;20.20;99.90;;;;;;5082053;28;20039;-75
2021/06/17 00:30:57;;;;;;;7.78;5.47;;;20.20;99.90;;;;;;5059455;28;20020;-77
2021/06/17 00:33:23;;;;;;;13.35;6.22;;;20.20;99.90;;;;;;5062703;28;20548;-76
2021/06/17 00:35:49;;;;;;;15.23;6.38;;;20.20;99.90;;;;;;5061023;28;20032;-76
2021/06/17 00:38:16;;;;;;;12.48;6.80;;;20.10;99.90;;;;;;5063215;28;20036;-76
2021/06/17 00:40:43;;;;;;;10.07;6.13;;;20.10;99.90;;;;;;5067946;28;20041;-76
2021/06/17 00:43:11;;;;;;;11.45;5.80;;;20.10;99.90;;;;;;5062707;28;20036;-76
2021/06/17 00:45:42;;;;;;;10.38;6.15;;;20.10;99.90;;;;;;5059924;28;20123;-75
2021/06/17 00:48:08;;;;;;;14.43;6.55;;;20.10;99.90;;;;;;5061671;28;20673;-76
2021/06/17 00:50:42;;;;;;;7.53;5.97;;;20.00;99.90;;;;;;5048863;28;20059;-76
2021/06/17 00:53:12;;;;;;;18.85;7.28;;;20.00;99.90;;;;;;5061526;28;20024;-76
2021/06/17 00:55:40;;;;;;;9.90;5.88;;;19.90;99.90;;;;;;5059501;28;20033;-75
2021/06/17 00:58:08;;;;;;;21.40;6.95;;;19.90;99.90;;;;;;5061287;28;20021;-75
2021/06/17 01:00:37;;;;;;;7.75;5.40;;;19.90;99.90;;;;;;5057840;28;20112;-75
2021/06/17 01:03:05;;;;;;;14.85;6.88;;;19.90;99.90;;;;;;5066687;28;20413;-75
2021/06/17 01:05:33;;;;;;;9.52;6.07;;;19.90;99.90;;;;;;5060315;28;20024;-75
2021/06/17 01:08:02;;;;;;;11.57;5.78;;;19.90;99.90;;;;;;5061743;28;20033;-75
2021/06/17 01:10:38;;;;;;;8.23;5.82;;;19.80;99.90;;;;;;5077183;28;20444;-75
2021/06/17 01:13:21;;;;;;;9.38;6.20;;;19.90;99.90;;;;;;5061448;28;20040;-76
2021/06/17 01:16:12;;;;;;;14.85;6.70;;;19.90;99.90;;;;;;5060348;28;20024;-76
2021/06/17 01:18:42;;;;;;;9.50;6.20;;;19.80;99.90;;;;;;5080043;28;20527;-75
2021/06/17 01:21:19;;;;;;;15.43;6.30;;;19.80;99.90;;;;;;5058838;28;20041;-76
2021/06/17 01:23:47;;;;;;;11.93;6.82;;;19.80;99.90;;;;;;5061543;28;20428;-76
2021/06/17 01:26:47;;;;;;;8.05;5.97;;;19.70;99.90;;;;;;5064636;28;20075;-75
2021/06/17 01:29:14;;;;;;;12.60;7.03;;;19.70;99.90;;;;;;5061525;28;20025;-76
2021/06/17 01:31:40;;;;;;;14.82;6.97;;;19.70;99.90;;;;;;5058894;28;20025;-76
2021/06/17 01:34:08;;;;;;;14.85;6.90;;;19.70;99.90;;;;;;5062606;28;20032;-76
2021/06/17 01:36:38;;;;;;;11.55;6.45;;;19.70;99.90;;;;;;5058139;28;20355;-76
2021/06/17 01:39:06;;;;;;;9.23;6.05;;;19.70;99.90;;;;;;5061256;28;20024;-75
2021/06/17 01:41:34;;;;;;;9.57;6.70;;;19.60;99.90;;;;;;5058206;28;20029;-75
2021/06/17 01:44:02;;;;;;;10.40;7.07;;;19.60;99.90;;;;;;5049585;28;20037;-75
2021/06/17 01:46:27;;;;;;;9.05;6.50;;;19.60;99.90;;;;;;5058798;28;20441;-76
2021/06/17 01:48:56;;;;;;;20.27;7.97;;;19.60;99.90;;;;;;5058719;28;20048;-75
2021/06/17 01:51:26;;;;;;;12.70;6.97;;;19.60;99.90;;;;;;5059724;28;20391;-76
2021/06/17 01:53:52;;;;;;;13.23;6.95;;;19.50;99.90;;;;;;5046660;28;20060;-75
2021/06/17 01:56:19;;;;;;;8.65;6.68;;;19.50;99.90;;;;;;5061517;28;20060;-76
2021/06/17 01:58:51;;;;;;;34.67;9.02;;;19.50;99.90;;;;;;5064453;28;20032;-76
2021/06/17 02:01:17;;;;;;;12.15;6.60;;;19.50;99.90;;;;;;5047464;28;20055;-76
2021/06/17 02:03:48;;;;;;;25.02;8.00;;;19.50;99.90;;;;;;5059241;28;20473;-76
2021/06/17 02:06:16;;;;;;;9.55;6.53;;;19.50;99.90;;;;;;5061246;28;20043;-76
2021/06/17 02:08:43;;;;;;;15.73;7.38;;;19.40;99.90;;;;;;5061034;28;20045;-76
2021/06/17 02:11:11;;;;;;;10.60;6.70;;;19.40;99.90;;;;;;5058835;28;20028;-76
2021/06/17 02:13:37;;;;;;;10.32;6.55;;;19.40;99.90;;;;;;5042342;28;20116;-76
2021/06/17 02:16:03;;;;;;;15.38;6.80;;;19.40;99.90;;;;;;5062202;28;20103;-76
2021/06/17 02:18:28;;;;;;;22.25;8.38;;;19.40;99.90;;;;;;5058940;28;20025;-76
2021/06/17 02:20:54;;;;;;;10.88;6.50;;;19.40;99.90;;;;;;5046256;28;20029;-76
2021/06/17 02:23:23;;;;;;;22.92;8.70;;;19.40;99.90;;;;;;5057800;28;20604;-76
2021/06/17 02:25:53;;;;;;;11.32;6.80;;;19.30;99.90;;;;;;5058140;28;20075;-76
2021/06/17 02:28:19;;;;;;;10.20;7.00;;;19.30;99.90;;;;;;5066328;28;20029;-76
2021/06/17 02:30:47;;;;;;;8.98;7.03;;;19.30;99.90;;;;;;5058122;28;20025;-76
2021/06/17 02:33:16;;;;;;;10.82;7.10;;;19.30;99.90;;;;;;5057515;28;20108;-76
2021/06/17 02:35:43;;;;;;;17.45;7.30;;;19.30;99.90;;;;;;5042150;28;20040;-76
2021/06/17 02:38:18;;;;;;;9.13;7.03;;;19.30;99.90;;;;;;5059004;28;20028;-76
2021/06/17 02:40:48;;;;;;;7.97;6.43;;;19.30;99.90;;;;;;5060945;28;20102;-77
2021/06/17 02:43:16;;;;;;;17.13;7.93;;;19.30;99.90;;;;;;5084121;28;20125;-76
2021/06/17 02:45:44;;;;;;;13.27;6.90;;;19.30;99.90;;;;;;5069612;28;20039;-77
2021/06/17 02:48:10;;;;;;;12.82;6.93;;;19.20;99.90;;;;;;5059120;28;20025;-76
2021/06/17 02:50:36;;;;;;;13.23;7.30;;;19.20;99.90;;;;;;5063775;28;20078;-76
2021/06/17 02:53:03;;;;;;;8.65;6.53;;;19.20;99.90;;;;;;5079900;28;20025;-76
2021/06/17 02:55:29;;;;;;;10.02;6.53;;;19.20;99.90;;;;;;5063814;28;20583;-76
2021/06/17 02:58:32;;;;;;;23.20;8.02;;;19.20;99.90;;;;;;5062780;28;20029;-76
2021/06/17 03:01:32;;;;;;;13.43;7.18;;;19.20;99.90;;;;;;5064158;28;20032;-76
2021/06/17 03:04:12;;;;;;;15.13;7.07;;;19.10;99.90;;;;;;5066044;28;20036;-76
2021/06/17 03:06:49;;;;;;;8.68;6.80;;;19.10;99.90;;;;;;5063228;28;20037;-76
2021/06/17 03:09:24;;;;;;;22.52;8.10;;;19.10;99.90;;;;;;5046488;28;20470;-76
2021/06/17 03:11:53;;;;;;;8.75;6.90;;;19.10;99.90;;;;;;5050043;28;20024;-76
2021/06/17 03:14:23;;;;;;;11.18;6.57;;;19.10;99.90;;;;;;5063875;28;20112;-76
2021/06/17 03:16:50;;;;;;;15.65;7.00;;;19.10;99.90;;;;;;5047495;28;20079;-76
2021/06/17 03:19:16;;;;;;;9.98;6.47;;;19.10;99.90;;;;;;5060950;28;20024;-76
2021/06/17 03:21:44;;;;;;;17.52;6.93;;;19.10;99.90;;;;;;5049368;28;20039;-76
2021/06/17 03:24:15;;;;;;;25.08;7.53;;;19.00;99.90;;;;;;5061540;28;20037;-76
2021/06/17 03:26:48;;;;;;;10.18;6.70;;;19.00;99.90;;;;;;5061038;28;20039;-76
2021/06/17 03:29:19;;;;;;;17.67;7.32;;;19.00;99.90;;;;;;5059089;28;20110;-76
2021/06/17 03:31:47;;;;;;;9.02;6.72;;;19.00;99.90;;;;;;5063206;28;20033;-76
2021/06/17 03:34:13;;;;;;;11.40;6.90;;;19.00;99.90;;;;;;5058542;28;20423;-76
2021/06/17 03:36:39;;;;;;;14.43;6.78;;;19.00;99.90;;;;;;5056023;28;20041;-76
2021/06/17 03:39:05;;;;;;;8.65;6.72;;;19.10;99.90;;;;;;5056258;28;20369;-76
2021/06/17 03:41:32;;;;;;;15.07;6.10;;;19.00;99.90;;;;;;5049798;28;20599;-76
2021/06/17 03:43:58;;;;;;;15.80;7.40;;;19.10;99.90;;;;;;5045991;28;20056;-76
2021/06/17 03:46:31;;;;;;;8.55;6.22;;;19.00;99.90;;;;;;5045745;28;20174;-76
2021/06/17 03:48:57;;;;;;;9.57;6.43;;;19.00;99.90;;;;;;5058645;28;20037;-76
2021/06/17 03:51:23;;;;;;;16.25;6.78;;;19.00;99.90;;;;;;5053726;28;20024;-76
2021/06/17 03:53:48;;;;;;;24.60;7.20;;;19.00;99.90;;;;;;5034104;28;20166;-76
2021/06/17 03:56:17;;;;;;;9.70;6.38;;;19.00;99.90;;;;;;5055154;28;20040;-76
2021/06/17 03:58:45;;;;;;;9.60;6.70;;;19.00;99.90;;;;;;5040655;28;20059;-76
2021/06/17 04:01:11;;;;;;;16.90;7.35;;;19.00;99.90;;;;;;5059778;28;20052;-76
2021/06/17 04:03:39;;;;;;;9.88;6.25;;;19.00;99.90;;;;;;5055811;28;20538;-76
2021/06/17 04:06:10;;;;;;;9.55;5.90;;;19.00;99.90;;;;;;5044371;28;20679;-76
2021/06/17 04:08:39;;;;;;;11.32;6.57;;;19.00;99.90;;;;;;5062915;28;20644;-76
2021/06/17 04:11:08;;;;;;;12.02;6.75;;;19.00;99.90;;;;;;5061921;28;20020;-76
2021/06/17 04:13:35;;;;;;;12.90;7.03;;;19.00;99.90;;;;;;5060799;28;20025;-76
2021/06/17 04:16:01;;;;;;;9.63;6.38;;;19.00;99.90;;;;;;5061029;28;20138;-76
2021/06/17 04:18:26;;;;;;;18.48;8.25;;;18.90;99.90;;;;;;5046496;28;20568;-76
2021/06/17 04:21:00;;;;;;;8.20;6.70;;;18.90;99.90;;;;;;5061978;28;20040;-76
2021/06/17 04:23:25;;;;;;;8.70;6.10;;;18.90;99.90;;;;;;5042238;28;20067;-76
2021/06/17 04:25:52;;;;;;;10.00;6.55;;;19.00;99.90;;;;;;5047774;28;20641;-76
2021/06/17 04:28:17;;;;;;;18.15;7.10;;;19.00;99.90;;;;;;5058663;28;20488;-76
2021/06/17 04:30:43;;;;;;;8.82;5.90;;;19.00;99.90;;;;;;5054289;28;20025;-76
2021/06/17 04:33:11;;;;;;;9.70;6.07;;;19.00;99.90;;;;;;5057673;28;20024;-76
2021/06/17 04:35:37;;;;;;;9.18;6.20;;;19.00;99.90;;;;;;5061574;28;20025;-76
2021/06/17 04:38:03;;;;;;;11.93;6.38;;;19.00;99.90;;;;;;5056993;28;20362;-76
2021/06/17 04:40:32;;;;;;;8.35;5.93;;;19.00;99.90;;;;;;5052931;28;20033;-77
2021/06/17 04:43:01;;;;;;;8.07;6.03;;;19.00;99.90;;;;;;5056713;28;20020;-77
2021/06/17 04:45:30;;;;;;;12.13;6.97;;;19.00;99.90;;;;;;5058053;28;20038;-77
2021/06/17 04:47:57;;;;;;;8.55;6.10;;;19.00;99.90;;;;;;5075540;28;20155;-76
2021/06/17 04:50:23;;;;;;;8.82;5.95;;;19.00;99.90;;;;;;5055084;28;20115;-76
2021/06/17 04:52:57;;;;;;;11.13;6.47;;;19.10;99.90;;;;;;5054357;28;20025;-76
2021/06/17 04:55:23;;;;;;;9.23;6.18;;;19.10;99.90;;;;;;5057168;28;20143;-76
2021/06/17 04:57:49;;;;;;;12.43;6.40;;;19.10;99.90;;;;;;5056294;28;20118;-76
2021/06/17 05:00:16;;;;;;;8.30;6.13;;;19.10;99.90;;;;;;5057522;28;20091;-76
2021/06/17 05:02:44;;;;;;;10.30;6.15;;;19.20;99.90;;;;;;5041622;28;20032;-76
2021/06/17 05:05:10;;;;;;;11.70;6.93;;;19.20;99.90;;;;;;5056404;28;20062;-76
2021/06/17 05:12:49;;;;;;;8.60;6.25;;;19.20;99.90;;;;;;5064102;28;20120;-76
2021/06/17 05:15:17;;;;;;;10.95;6.32;;;19.30;99.90;;;;;;5061298;28;20092;-76
2021/06/17 05:17:43;;;;;;;11.02;6.32;;;19.30;99.90;;;;;;5061654;28;20115;-76
2021/06/17 05:20:10;;;;;;;7.82;5.82;;;19.30;99.90;;;;;;5057874;28;20439;-76
2021/06/17 05:22:38;;;;;;;10.52;6.68;;;19.40;99.90;;;;;;5054526;28;20028;-76
2021/06/17 05:25:07;;;;;;;8.80;6.80;;;19.40;99.90;;;;;;5056684;28;20048;-76
2021/06/17 05:27:33;;;;;;;9.02;6.47;;;19.40;99.90;;;;;;5061750;28;20039;-76
2021/06/17 05:29:59;;;;;;;16.27;7.25;;;19.50;99.90;;;;;;5060885;28;20032;-76
2021/06/17 05:32:28;;;;;;;11.30;6.60;;;19.50;99.90;;;;;;5061925;28;20118;-76
2021/06/17 05:34:56;;;;;;;13.10;7.03;;;19.50;99.90;;;;;;5056965;28;20124;-76
2021/06/17 05:37:21;;;;;;;9.15;6.57;;;19.60;99.90;;;;;;5056468;28;20111;-76
2021/06/17 05:39:47;;;;;;;7.80;6.90;;;19.60;99.90;;;;;;5056116;28;21854;-76
2021/06/17 05:42:18;;;;;;;11.50;7.03;;;19.60;99.90;;;;;;5060369;28;20021;-76
2021/06/17 05:44:44;;;;;;;8.98;6.70;;;19.70;99.90;;;;;;5060135;28;20494;-76
2021/06/17 05:47:11;;;;;;;7.65;6.78;;;19.70;99.90;;;;;;5050690;28;20364;-76
2021/06/17 05:49:36;;;;;;;9.00;6.60;;;19.80;99.90;;;;;;5039639;28;20025;-78
2021/06/17 05:52:02;;;;;;;8.93;6.97;;;19.80;99.90;;;;;;5054410;28;20039;-77
2021/06/17 05:54:28;;;;;;;9.10;6.88;;;19.90;99.90;;;;;;5054645;28;20050;-76
2021/06/17 05:56:54;;;;;;;9.55;6.80;;;20.00;99.90;;;;;;5054122;28;20463;-76
2021/06/17 05:59:22;;;;;;;12.93;7.70;;;20.00;99.90;;;;;;5055003;28;20089;-76
2021/06/17 06:01:50;;;;;;;9.68;6.88;;;20.00;99.90;;;;;;5057481;28;20060;-76
2021/06/17 06:04:16;;;;;;;8.77;6.75;;;20.10;99.90;;;;;;5057015;28;20047;-71
2021/06/17 06:06:41;;;;;;;12.50;7.95;;;20.20;99.90;;;;;;5051471;28;20032;-71
2021/06/17 06:09:08;;;;;;;14.25;7.63;;;20.20;99.90;;;;;;5054998;28;20090;-71
2021/06/17 06:11:34;;;;;;;11.40;8.07;;;20.30;99.90;;;;;;5076752;28;20039;-75
2021/06/17 06:14:00;;;;;;;8.55;6.93;;;20.30;99.90;;;;;;5056654;28;20028;-75
2021/06/17 06:16:50;;;;;;;8.73;6.82;;;20.30;99.90;;;;;;5061638;28;20037;-76
2021/06/17 06:19:17;;;;;;;9.60;7.22;;;20.40;99.90;;;;;;5052771;28;20109;-72
2021/06/17 06:21:46;;;;;;;17.77;12.15;;;20.40;99.90;;;;;;5064911;28;20029;-72
2021/06/17 06:24:11;;;;;;;10.82;7.80;;;20.40;99.90;;;;;;5061045;28;20036;-75
2021/06/17 06:26:37;;;;;;;11.35;7.00;;;20.50;99.90;;;;;;5058723;28;20038;-76
2021/06/17 06:29:05;;;;;;;9.20;6.90;;;20.50;99.90;;;;;;5061179;28;20393;-76
2021/06/17 06:31:31;;;;;;;11.82;7.10;;;20.60;99.90;;;;;;5063585;28;20029;-76
2021/06/17 06:34:04;;;;;;;10.40;6.60;;;20.60;99.90;;;;;;5063425;28;20024;-76
2021/06/17 06:36:31;;;;;;;8.57;6.57;;;20.60;99.90;;;;;;5063716;28;20028;-76
2021/06/17 06:38:59;;;;;;;10.18;6.38;;;20.70;99.90;;;;;;5064062;28;20032;-76
2021/06/17 06:41:27;;;;;;;11.02;6.97;;;20.70;99.90;;;;;;5062933;28;20037;-77
2021/06/17 06:43:53;;;;;;;9.20;6.57;;;20.70;99.90;;;;;;5062621;28;20097;-76
2021/06/17 06:46:18;;;;;;;9.35;6.50;;;20.80;99.90;;;;;;5064706;28;20025;-72
2021/06/17 06:48:49;;;;;;;33.67;25.35;;;20.80;99.90;;;;;;5064711;28;20635;-72
2021/06/17 06:51:14;;;;;;;24.50;21.77;;;20.80;99.90;;;;;;5062680;28;20079;-76
2021/06/17 06:53:40;;;;;;;19.40;15.55;;;20.80;99.90;;;;;;5063909;28;20048;-76
2021/06/17 06:56:05;;;;;;;11.95;9.23;;;20.90;99.90;;;;;;5079466;28;20032;-76
2021/06/17 06:58:31;;;;;;;9.70;7.80;;;21.00;99.90;;;;;;5064492;28;20041;-76
2021/06/17 07:00:57;;;;;;;10.57;7.18;;;20.90;99.90;;;;;;5061663;28;20117;-76
2021/06/17 07:03:22;;;;;;;8.13;6.65;;;21.00;99.90;;;;;;5061915;28;20040;-75
2021/06/17 07:05:48;;;;;;;12.27;6.18;;;21.00;99.90;;;;;;5046891;28;20039;-75
2021/06/17 07:08:14;;;;;;;10.20;6.28;;;21.10;99.90;;;;;;5045446;28;20029;-76
2021/06/17 07:10:46;;;;;;;10.60;6.15;;;21.10;99.90;;;;;;5062422;28;20556;-75
2021/06/17 07:13:13;;;;;;;10.10;6.68;;;21.20;99.90;;;;;;5044267;28;20082;-77
2021/06/17 07:15:41;;;;;;;24.98;9.00;;;21.30;99.90;;;;;;5060956;28;20066;-78
2021/06/17 07:18:07;;;;;;;9.88;6.82;;;21.30;99.90;;;;;;5062126;28;20099;-76
2021/06/17 07:20:35;;;;;;;7.85;6.28;;;21.40;99.90;;;;;;5077902;28;20170;-75
2021/06/17 07:23:01;;;;;;;11.23;6.60;;;21.40;99.90;;;;;;5077683;28;20036;-74
2021/06/17 07:25:27;;;;;;;11.15;6.38;;;21.50;99.90;;;;;;5061501;28;20055;-76
2021/06/17 07:27:53;;;;;;;8.52;5.40;;;21.60;99.90;;;;;;5058769;28;20060;-75
2021/06/17 07:30:19;;;;;;;13.90;6.53;;;21.70;99.90;;;;;;5064048;28;20035;-75
2021/06/17 07:32:47;;;;;;;10.18;5.70;;;21.70;99.90;;;;;;5060359;28;20017;-76
2021/06/17 07:35:13;;;;;;;9.70;6.38;;;21.80;99.90;;;;;;5060627;28;20403;-76
2021/06/17 07:37:39;;;;;;;10.35;5.85;;;22.00;99.90;;;;;;5061699;28;20120;-76
2021/06/17 07:40:12;;;;;;;8.23;6.00;;;22.10;99.90;;;;;;5048836;28;20107;-75
2021/06/17 07:42:39;;;;;;;7.80;5.60;;;22.30;99.90;;;;;;5063550;28;20044;-76
2021/06/17 07:45:06;;;;;;;10.20;6.20;;;22.50;99.90;;;;;;5062778;28;20032;-76
2021/06/17 07:47:32;;;;;;;9.23;6.22;;;22.70;99.90;;;;;;5061293;28;20109;-76
2021/06/17 07:49:57;;;;;;;9.70;6.07;;;22.90;99.90;;;;;;5076027;28;20115;-76
2021/06/17 07:52:25;;;;;;;8.05;5.88;;;23.10;99.90;;;;;;5061541;28;20032;-76
2021/06/17 07:54:53;;;;;;;7.72;5.72;;;23.30;99.90;;;;;;5064222;28;20035;-76
2021/06/17 07:57:20;;;;;;;10.95;5.95;;;23.50;99.90;;;;;;5061299;28;20028;-76
2021/06/17 07:59:45;;;;;;;10.57;6.30;;;23.80;99.90;;;;;;5062349;28;20020;-76
2021/06/17 08:02:11;;;;;;;8.25;5.75;;;24.10;99.90;;;;;;5059232;28;20596;-76
2021/06/17 08:04:39;;;;;;;9.60;5.75;;;24.30;99.90;;;;;;5060755;28;20061;-76
2021/06/17 08:07:08;;;;;;;9.23;5.75;;;24.50;99.90;;;;;;5063227;28;20033;-77
2021/06/17 08:09:33;;;;;;;15.27;6.30;;;24.70;99.90;;;;;;5061812;28;20044;-76
2021/06/17 08:11:59;;;;;;;9.95;5.40;;;24.90;99.90;;;;;;5062207;28;20028;-78
2021/06/17 08:14:28;;;;;;;8.60;5.47;;;25.10;99.90;;;;;;5061404;28;20048;-79
2021/06/17 08:17:00;;;;;;;7.47;5.22;;;25.20;99.90;;;;;;5061501;28;20028;-79
2021/06/17 08:19:29;;;;;;;6.95;5.35;;;25.40;99.90;;;;;;5061910;28;20105;-73
2021/06/17 08:21:59;;;;;;;19.65;17.55;;;25.60;99.90;;;;;;5061735;28;20085;-74
2021/06/17 08:24:25;;;;;;;23.70;20.60;;;25.70;99.90;;;;;;5061342;28;20140;-79
2021/06/17 08:26:54;;;;;;;24.17;11.10;;;25.90;99.90;;;;;;5061143;28;20619;-78
2021/06/17 08:29:24;;;;;;;11.82;6.18;;;26.10;99.90;;;;;;5061755;28;20051;-79
2021/06/17 08:31:49;;;;;;;20.05;7.20;;;26.20;99.90;;;;;;5078250;28;20037;-79
2021/06/17 08:34:15;;;;;;;15.00;7.05;;;26.40;94.80;;;;;;5062294;28;20089;-78
2021/06/17 08:36:41;;;;;;;7.45;5.60;;;26.50;99.90;;;;;;5048099;28;20039;-79
2021/06/17 08:39:08;;;;;;;12.38;5.97;;;26.60;99.90;;;;;;5058465;28;20029;-80
2021/06/17 08:41:36;;;;;;;10.82;6.13;;;26.80;96.80;;;;;;5062035;28;20043;-79
2021/06/17 08:44:08;;;;;;;10.50;5.53;;;26.80;95.30;;;;;;5060782;28;20469;-78
2021/06/17 08:46:36;;;;;;;8.50;5.43;;;26.90;99.00;;;;;;5061561;28;20040;-78
2021/06/17 08:49:01;;;;;;;14.05;6.57;;;26.90;99.90;;;;;;5061631;28;20679;-78
2021/06/17 08:51:27;;;;;;;11.60;5.38;;;27.10;99.90;;;;;;5065408;28;20032;-79
2021/06/17 08:53:53;;;;;;;14.60;6.65;;;27.10;99.80;;;;;;5055470;28;20023;-79
2021/06/17 08:56:18;;;;;;;14.43;5.70;;;27.20;99.90;;;;;;5062095;28;20033;-76
2021/06/17 08:58:45;;;;;;;8.32;4.93;;;27.20;94.70;;;;;;5062188;28;20117;-76
2021/06/17 09:01:12;;;;;;;10.43;4.90;;;27.30;93.80;;;;;;5060653;28;20040;-76
2021/06/17 09:03:39;;;;;;;9.13;4.63;;;27.30;92.00;;;;;;5045779;28;21116;-75
2021/06/17 09:06:05;;;;;;;10.30;4.60;;;27.20;76.60;;;;;;5062573;28;20036;-76
2021/06/17 09:08:31;;;;;;;9.43;4.50;;;27.20;81.80;;;;;;5057698;28;20024;-76
2021/06/17 09:10:57;;;;;;;16.85;5.32;;;27.20;72.40;;;;;;5065782;28;20470;-75
2021/06/17 09:13:28;;;;;;;6.78;4.85;;;27.10;69.30;;;;;;5060137;28;20115;-75
2021/06/17 09:15:54;;;;;;;8.55;5.03;;;27.10;77.80;;;;;;5059534;28;20025;-75
2021/06/17 09:18:29;;;;;;;9.85;4.55;;;27.00;71.90;;;;;;5042851;28;20047;-75
2021/06/17 09:21:02;;;;;;;7.78;4.60;;;27.10;76.40;;;;;;5062683;28;20028;-75
2021/06/17 09:23:40;;;;;;;10.50;4.97;;;27.10;75.30;;;;;;5057602;28;20041;-76
2021/06/17 09:26:17;;;;;;;9.45;5.13;;;27.20;79.50;;;;;;5061616;28;20112;-76
2021/06/17 09:28:50;;;;;;;10.40;5.20;;;27.20;79.20;;;;;;5050701;28;20353;-75
2021/06/17 09:31:44;;;;;;;14.95;5.60;;;27.30;86.00;;;;;;5061472;28;20032;-76
2021/06/17 09:34:14;;;;;;;12.82;5.32;;;27.30;85.00;;;;;;5060389;28;20115;-75
2021/06/17 09:36:40;;;;;;;8.25;5.00;;;27.40;83.30;;;;;;5057497;28;20036;-75
2021/06/17 09:39:18;;;;;;;9.13;5.40;;;27.40;83.70;;;;;;5055615;28;20094;-75
2021/06/17 09:41:45;;;;;;;7.82;4.78;;;27.40;72.30;;;;;;5061411;28;20611;-75
2021/06/17 09:44:30;;;;;;;6.63;4.82;;;27.50;77.00;;;;;;5059756;28;20650;-75
2021/06/17 09:47:14;;;;;;;8.00;5.03;;;27.50;84.00;;;;;;5056308;28;20452;-76
2021/06/17 09:49:41;;;;;;;12.90;5.70;;;27.60;83.40;;;;;;5059616;28;20123;-75
2021/06/17 09:52:07;;;;;;;15.45;6.10;;;27.60;86.70;;;;;;5058725;28;20063;-76
2021/06/17 09:54:39;;;;;;;15.93;6.60;;;27.70;77.70;;;;;;5061090;28;20017;-75
2021/06/17 09:57:18;;;;;;;12.35;6.47;;;27.70;71.70;;;;;;5056909;28;20021;-77
2021/06/17 09:59:54;;;;;;;9.45;5.63;;;27.80;85.30;;;;;;5060689;28;20086;-75
2021/06/17 10:02:22;;;;;;;9.00;5.50;;;27.80;92.90;;;;;;5062101;28;20461;-76
2021/06/17 10:04:48;;;;;;;9.27;5.60;;;27.90;90.40;;;;;;5058000;28;20056;-76
2021/06/17 10:07:16;;;;;;;13.10;5.65;;;27.90;75.30;;;;;;5057110;28;20052;-75
2021/06/17 10:09:42;;;;;;;10.35;5.43;;;28.00;82.80;;;;;;5060540;28;20025;-76
2021/06/17 10:12:08;;;;;;;12.45;5.68;;;28.00;83.20;;;;;;5060176;28;20032;-76
2021/06/17 10:14:33;;;;;;;9.95;5.45;;;28.10;87.80;;;;;;5061770;28;20024;-75
2021/06/17 10:16:59;;;;;;;11.23;5.95;;;28.20;86.20;;;;;;5060062;28;20525;-71
2021/06/17 10:19:25;;;;;;;10.23;5.93;;;28.20;81.80;;;;;;5060025;28;20029;-71
2021/06/17 10:21:50;;;;;;;12.43;7.95;;;28.30;80.20;;;;;;5060409;28;20631;-72
2021/06/17 10:24:20;;;;;;;13.32;6.50;;;28.30;79.10;;;;;;5061382;28;20051;-75
2021/06/17 10:26:57;;;;;;;10.18;6.10;;;28.40;74.80;;;;;;5059640;28;20478;-76
2021/06/17 10:29:26;;;;;;;8.88;5.38;;;28.30;78.10;;;;;;5058102;28;20074;-76
2021/06/17 10:31:56;;;;;;;11.30;5.68;;;28.40;82.60;;;;;;5064707;28;20028;-75
2021/06/17 10:34:25;;;;;;;8.70;5.15;;;28.40;80.00;;;;;;5076485;28;20558;-75
2021/06/17 10:37:14;;;;;;;12.30;6.25;;;28.50;76.30;;;;;;5060357;28;20021;-75
2021/06/17 10:39:54;;;;;;;7.50;5.28;;;28.50;70.30;;;;;;5060590;28;20028;-76
2021/06/17 10:42:27;;;;;;;15.38;6.30;;;28.60;70.30;;;;;;5060455;28;20028;-75
2021/06/17 10:44:59;;;;;;;12.32;6.30;;;28.60;70.70;;;;;;5059512;28;20024;-75
2021/06/17 10:50:22;;;;;;;11.43;5.97;;;28.70;79.00;;;;;;5058846;28;20037;-76
2021/06/17 10:52:53;;;;;;;7.80;5.50;;;28.80;73.30;;;;;;5058023;28;20213;-75
2021/06/17 10:55:25;;;;;;;7.53;5.45;;;28.90;80.30;;;;;;5079446;28;20405;-75
2021/06/17 10:57:57;;;;;;;11.20;5.72;;;29.10;81.80;;;;;;5060950;28;20040;-75
2021/06/17 11:00:26;;;;;;;21.83;7.18;;;29.20;77.90;;;;;;4372848;28;10000960;-76
2021/06/17 11:02:58;;;;;;;7.65;5.05;;;29.20;70.20;;;;;;5058939;28;20052;-76
2021/06/17 11:05:36;;;;;;;7.80;5.10;;;29.30;76.10;;;;;;5063743;28;20033;-76
2021/06/17 11:08:22;;;;;;;11.10;5.60;;;29.30;69.10;;;;;;5076506;28;20032;-76
2021/06/17 11:10:49;;;;;;;10.70;5.53;;;29.40;71.70;;;;;;5061013;28;20035;-76
2021/06/17 11:13:34;;;;;;;16.35;6.32;;;29.50;70.10;;;;;;5059617;28;20040;-76
2021/06/17 11:16:05;;;;;;;15.70;6.03;;;29.60;70.90;;;;;;5059809;28;20036;-77
2021/06/17 11:18:47;;;;;;;12.35;5.95;;;29.70;73.90;;;;;;5059259;28;20024;-76
2021/06/17 11:21:22;;;;;;;8.93;5.00;;;29.70;75.40;;;;;;5060474;28;20116;-77
2021/06/17 11:23:58;;;;;;;23.77;7.65;;;29.80;79.60;;;;;;5060222;28;20127;-77
2021/06/17 11:26:39;;;;;;;8.65;5.25;;;30.00;75.80;;;;;;5061008;28;20113;-76
2021/06/17 11:29:09;;;;;;;8.40;4.80;;;30.00;63.80;;;;;;5065037;28;20428;-75
2021/06/17 11:31:53;;;;;;;14.23;5.68;;;30.10;75.10;;;;;;4362592;28;10000378;-71
2021/06/17 11:34:32;;;;;;;10.52;5.53;;;30.20;63.20;;;;;;5062148;28;20048;-74
2021/06/17 11:37:02;;;;;;;13.65;5.53;;;30.20;67.60;;;;;;5061797;28;20024;-72
2021/06/17 11:39:36;;;;;;;14.00;5.88;;;30.30;67.10;;;;;;5060637;28;20538;-71
2021/06/17 11:42:03;;;;;;;23.63;7.22;;;30.40;68.00;;;;;;5046015;28;20028;-71
2021/06/17 11:44:29;;;;;;;12.25;6.40;;;30.50;69.40;;;;;;5057259;28;20466;-75
2021/06/17 11:47:08;;;;;;;9.32;5.05;;;30.70;73.10;;;;;;5058528;28;20482;-74
2021/06/17 11:49:39;;;;;;;7.93;4.80;;;30.70;65.40;;;;;;5059301;28;20032;-74
2021/06/17 11:52:25;;;;;;;9.27;5.00;;;30.80;73.10;;;;;;5058273;28;20020;-74
2021/06/17 11:54:53;;;;;;;9.20;5.30;;;31.00;70.00;;;;;;5063088;28;20209;-74
2021/06/17 11:57:25;;;;;;;13.80;5.75;;;31.10;74.50;;;;;;5060906;28;20047;-74
2021/06/17 11:59:50;;;;;;;16.17;6.00;;;31.10;67.00;;;;;;5063048;28;20033;-75
2021/06/17 12:02:26;;;;;;;9.13;5.05;;;31.10;67.30;;;;;;5065762;28;20020;-75
2021/06/17 12:07:36;;;;;;;12.20;5.68;;;31.20;65.80;;;;;;5063804;28;20028;-74
2021/06/17 12:10:20;;;;;;;10.57;5.78;;;31.40;62.70;;;;;;5062271;28;20031;-75
2021/06/17 12:12:52;;;;;;;12.45;5.50;;;31.40;65.10;;;;;;5049319;28;20028;-75
2021/06/17 12:15:20;;;;;;;8.93;5.40;;;31.60;63.00;;;;;;5064290;28;20021;-74
2021/06/17 12:17:50;;;;;;;11.88;5.60;;;31.70;67.00;;;;;;5062843;28;20037;-74
2021/06/17 12:20:39;;;;;;;10.68;5.38;;;31.70;63.60;;;;;;5063269;28;20504;-74
2021/06/17 12:23:16;;;;;;;12.60;6.15;;;31.80;68.60;;;;;;5083157;28;20100;-73
2021/06/17 12:25:46;;;;;;;13.85;5.70;;;31.80;61.80;;;;;;5062195;28;20037;-74
2021/06/17 12:28:13;;;;;;;10.43;5.50;;;31.90;72.80;;;;;;5049431;28;20024;-74
2021/06/17 12:30:42;;;;;;;10.00;5.63;;;31.90;65.20;;;;;;5061043;28;20155;-74
2021/06/17 12:33:15;;;;;;;9.45;5.60;;;31.90;65.40;;;;;;5064310;28;20028;-74
2021/06/17 12:35:46;;;;;;;10.45;6.10;;;32.00;66.20;;;;;;5059073;28;20071;-74
2021/06/17 12:38:13;;;;;;;12.10;6.07;;;32.00;67.60;;;;;;5060818;28;20037;-75
2021/06/17 12:40:42;;;;;;;12.95;6.22;;;32.10;65.80;;;;;;5063757;28;20055;-74
2021/06/17 12:43:12;;;;;;;13.32;6.28;;;32.10;66.20;;;;;;5061127;28;20089;-77
2021/06/17 12:45:41;;;;;;;9.88;5.88;;;32.20;63.50;;;;;;5062487;28;20020;-76
2021/06/17 12:48:32;;;;;;;11.60;6.20;;;32.30;70.80;;;;;;5060700;28;20044;-74
2021/06/17 12:54:03;;;;;;;8.68;5.80;;;32.30;58.40;;;;;;5062149;28;20121;-74
2021/06/17 12:56:30;;;;;;;10.30;6.13;;;32.30;69.50;;;;;;5060904;28;20032;-73
2021/06/17 12:58:58;;;;;;;15.73;6.93;;;32.30;64.30;;;;;;5047505;28;20089;-73
2021/06/17 13:01:24;;;;;;;9.73;6.05;;;32.30;66.80;;;;;;5062620;28;20037;-74
2021/06/17 13:04:14;;;;;;;8.18;6.00;;;32.30;66.20;;;;;;5061769;28;20086;-74
2021/06/17 13:06:42;;;;;;;8.80;5.85;;;32.30;65.70;;;;;;5066198;28;20210;-77